sensor_id;sensor_type;location;lat;lon;timestamp;P1;durP1;ratioP1;P2;durP2;ratioP2
18407;SDS011;9330;52.210;21.174;2024-03-07T00:00:18;16.92;;;11.95;;
18407;SDS011;9330;52.210;21.174;2024-03-07T00:02:47;16.13;;;11.98;;
18407;SDS011;9330;52.210;21.174;2024-03-07T00:05:15;17.90;;;13.07;;
18407;SDS011;9330;52.210;21.174;2024-03-07T00:07:42;17.38;;;11.45;;
18407;SDS011;9330;52.210;21.174;2024-03-07T00:10:09;16.63;;;12.07;;
18407;SDS011;9330;52.210;21.174;2024-03-07T00:12:37;15.68;;;11.95;;
18407;SDS011;9330;52.210;21.174;2024-03-07T00:15:06;16.38;;;11.60;;
18407;SDS011;9330;52.210;21.174;2024-03-07T00:17:35;16.30;;;11.80;;
18407;SDS011;9330;52.210;21.174;2024-03-07T00:20:01;17.80;;;12.38;;
18407;SDS011;9330;52.210;21.174;2024-03-07T00:22:29;17.13;;;12.70;;
18407;SDS011;9330;52.210;21.174;2024-03-07T00:24:56;16.02;;;12.15;;
18407;SDS011;9330;52.210;21.174;2024-03-07T00:27:24;18.92;;;12.07;;
18407;SDS011;9330;52.210;21.174;2024-03-07T00:29:51;16.25;;;11.85;;
18407;SDS011;9330;52.210;21.174;2024-03-07T00:32:19;17.60;;;12.65;;
18407;SDS011;9330;52.210;21.174;2024-03-07T00:34:47;16.65;;;11.68;;
18407;SDS011;9330;52.210;21.174;2024-03-07T00:37:14;17.67;;;12.10;;
18407;SDS011;9330;52.210;21.174;2024-03-07T00:39:42;15.73;;;11.82;;
18407;SDS011;9330;52.210;21.174;2024-03-07T00:42:09;15.70;;;12.27;;
18407;SDS011;9330;52.210;21.174;2024-03-07T00:44:36;15.77;;;11.55;;
18407;SDS011;9330;52.210;21.174;2024-03-07T00:47:03;16.35;;;12.30;;
18407;SDS011;9330;52.210;21.174;2024-03-07T00:49:30;16.00;;;12.18;;
18407;SDS011;9330;52.210;21.174;2024-03-07T00:51:59;16.35;;;11.48;;
18407;SDS011;9330;52.210;21.174;2024-03-07T00:54:26;17.50;;;12.65;;
18407;SDS011;9330;52.210;21.174;2024-03-07T00:56:52;15.98;;;12.18;;
18407;SDS011;9330;52.210;21.174;2024-03-07T00:59:20;18.63;;;12.73;;
18407;SDS011;9330;52.210;21.174;2024-03-07T01:01:47;16.80;;;12.23;;
18407;SDS011;9330;52.210;21.174;2024-03-07T01:04:15;18.30;;;12.77;;
18407;SDS011;9330;52.210;21.174;2024-03-07T01:06:42;19.52;;;12.73;;
18407;SDS011;9330;52.210;21.174;2024-03-07T01:09:10;19.33;;;12.98;;
18407;SDS011;9330;52.210;21.174;2024-03-07T01:11:42;19.60;;;12.40;;
18407;SDS011;9330;52.210;21.174;2024-03-07T01:14:10;17.83;;;12.90;;
18407;SDS011;9330;52.210;21.174;2024-03-07T01:16:37;16.83;;;12.32;;
18407;SDS011;9330;52.210;21.174;2024-03-07T01:19:03;17.17;;;12.27;;
18407;SDS011;9330;52.210;21.174;2024-03-07T01:21:32;16.65;;;12.73;;
18407;SDS011;9330;52.210;21.174;2024-03-07T01:23:59;19.70;;;13.43;;
18407;SDS011;9330;52.210;21.174;2024-03-07T01:26:28;18.25;;;13.02;;
18407;SDS011;9330;52.210;21.174;2024-03-07T01:28:55;16.55;;;11.82;;
18407;SDS011;9330;52.210;21.174;2024-03-07T01:31:23;18.05;;;12.23;;
18407;SDS011;9330;52.210;21.174;2024-03-07T01:33:50;16.30;;;12.43;;
18407;SDS011;9330;52.210;21.174;2024-03-07T01:36:18;17.45;;;12.55;;
18407;SDS011;9330;52.210;21.174;2024-03-07T01:38:45;18.60;;;12.18;;
18407;SDS011;9330;52.210;21.174;2024-03-07T01:41:12;17.52;;;12.60;;
18407;SDS011;9330;52.210;21.174;2024-03-07T01:43:41;18.10;;;12.05;;
18407;SDS011;9330;52.210;21.174;2024-03-07T01:46:08;17.77;;;12.30;;
18407;SDS011;9330;52.210;21.174;2024-03-07T01:48:36;18.92;;;11.95;;
18407;SDS011;9330;52.210;21.174;2024-03-07T01:51:05;16.73;;;12.43;;
18407;SDS011;9330;52.210;21.174;2024-03-07T01:53:33;18.30;;;13.30;;
18407;SDS011;9330;52.210;21.174;2024-03-07T01:56:01;17.00;;;12.25;;
18407;SDS011;9330;52.210;21.174;2024-03-07T01:58:29;18.40;;;12.85;;
18407;SDS011;9330;52.210;21.174;2024-03-07T02:00:59;18.42;;;12.73;;
18407;SDS011;9330;52.210;21.174;2024-03-07T02:03:25;18.80;;;12.43;;
18407;SDS011;9330;52.210;21.174;2024-03-07T02:05:52;19.55;;;12.30;;
18407;SDS011;9330;52.210;21.174;2024-03-07T02:08:20;18.40;;;12.63;;
18407;SDS011;9330;52.210;21.174;2024-03-07T02:10:46;17.35;;;12.32;;
18407;SDS011;9330;52.210;21.174;2024-03-07T02:13:14;19.17;;;13.52;;
18407;SDS011;9330;52.210;21.174;2024-03-07T02:15:41;18.35;;;13.07;;
18407;SDS011;9330;52.210;21.174;2024-03-07T02:18:10;17.20;;;12.15;;
18407;SDS011;9330;52.210;21.174;2024-03-07T02:20:37;20.00;;;13.38;;
18407;SDS011;9330;52.210;21.174;2024-03-07T02:23:06;18.13;;;11.75;;
18407;SDS011;9330;52.210;21.174;2024-03-07T02:25:33;18.33;;;13.23;;
18407;SDS011;9330;52.210;21.174;2024-03-07T02:28:03;20.35;;;12.48;;
18407;SDS011;9330;52.210;21.174;2024-03-07T02:30:30;20.05;;;12.80;;
18407;SDS011;9330;52.210;21.174;2024-03-07T02:32:57;19.17;;;12.02;;
18407;SDS011;9330;52.210;21.174;2024-03-07T02:35:31;17.33;;;12.23;;
18407;SDS011;9330;52.210;21.174;2024-03-07T02:37:59;17.30;;;12.18;;
18407;SDS011;9330;52.210;21.174;2024-03-07T02:40:26;16.83;;;12.00;;
18407;SDS011;9330;52.210;21.174;2024-03-07T02:42:53;18.63;;;13.50;;
18407;SDS011;9330;52.210;21.174;2024-03-07T02:45:20;18.65;;;12.68;;
18407;SDS011;9330;52.210;21.174;2024-03-07T02:47:47;18.33;;;13.20;;
18407;SDS011;9330;52.210;21.174;2024-03-07T02:50:14;20.08;;;13.07;;
18407;SDS011;9330;52.210;21.174;2024-03-07T02:52:41;20.40;;;13.45;;
18407;SDS011;9330;52.210;21.174;2024-03-07T02:55:08;16.90;;;12.18;;
18407;SDS011;9330;52.210;21.174;2024-03-07T02:57:37;18.90;;;12.52;;
18407;SDS011;9330;52.210;21.174;2024-03-07T03:00:05;20.80;;;14.10;;
18407;SDS011;9330;52.210;21.174;2024-03-07T03:02:44;18.30;;;12.82;;
18407;SDS011;9330;52.210;21.174;2024-03-07T03:05:12;20.20;;;13.30;;
18407;SDS011;9330;52.210;21.174;2024-03-07T03:07:40;18.77;;;12.35;;
18407;SDS011;9330;52.210;21.174;2024-03-07T03:10:07;18.27;;;12.43;;
18407;SDS011;9330;52.210;21.174;2024-03-07T03:12:37;20.60;;;13.45;;
18407;SDS011;9330;52.210;21.174;2024-03-07T03:15:04;20.58;;;13.05;;
18407;SDS011;9330;52.210;21.174;2024-03-07T03:17:34;18.45;;;12.80;;
18407;SDS011;9330;52.210;21.174;2024-03-07T03:20:01;20.52;;;13.10;;
18407;SDS011;9330;52.210;21.174;2024-03-07T03:22:40;18.83;;;13.20;;
18407;SDS011;9330;52.210;21.174;2024-03-07T03:25:09;18.30;;;12.70;;
18407;SDS011;9330;52.210;21.174;2024-03-07T03:27:37;19.65;;;13.75;;
18407;SDS011;9330;52.210;21.174;2024-03-07T03:30:05;20.05;;;12.93;;
18407;SDS011;9330;52.210;21.174;2024-03-07T03:32:38;18.80;;;12.57;;
18407;SDS011;9330;52.210;21.174;2024-03-07T03:35:05;18.05;;;12.20;;
18407;SDS011;9330;52.210;21.174;2024-03-07T03:37:38;18.85;;;12.80;;
18407;SDS011;9330;52.210;21.174;2024-03-07T03:40:06;21.67;;;13.43;;
18407;SDS011;9330;52.210;21.174;2024-03-07T03:42:34;19.48;;;13.18;;
18407;SDS011;9330;52.210;21.174;2024-03-07T03:45:04;20.20;;;13.50;;
18407;SDS011;9330;52.210;21.174;2024-03-07T03:47:33;22.27;;;13.85;;
18407;SDS011;9330;52.210;21.174;2024-03-07T03:50:01;21.88;;;14.00;;
18407;SDS011;9330;52.210;21.174;2024-03-07T03:52:29;20.85;;;14.40;;
18407;SDS011;9330;52.210;21.174;2024-03-07T03:54:56;19.30;;;13.25;;
18407;SDS011;9330;52.210;21.174;2024-03-07T03:57:23;21.23;;;14.38;;
18407;SDS011;9330;52.210;21.174;2024-03-07T03:59:50;20.92;;;13.93;;
18407;SDS011;9330;52.210;21.174;2024-03-07T04:02:19;21.63;;;14.05;;
18407;SDS011;9330;52.210;21.174;2024-03-07T04:04:45;21.92;;;13.88;;
18407;SDS011;9330;52.210;21.174;2024-03-07T04:07:13;23.08;;;14.98;;
18407;SDS011;9330;52.210;21.174;2024-03-07T04:09:41;21.83;;;13.93;;
18407;SDS011;9330;52.210;21.174;2024-03-07T04:12:08;23.92;;;15.23;;
18407;SDS011;9330;52.210;21.174;2024-03-07T04:14:36;22.77;;;14.73;;
18407;SDS011;9330;52.210;21.174;2024-03-07T04:17:03;25.60;;;16.15;;
18407;SDS011;9330;52.210;21.174;2024-03-07T04:19:33;23.30;;;14.43;;
18407;SDS011;9330;52.210;21.174;2024-03-07T04:22:01;19.00;;;13.27;;
18407;SDS011;9330;52.210;21.174;2024-03-07T04:24:28;20.98;;;14.07;;
18407;SDS011;9330;52.210;21.174;2024-03-07T04:26:57;22.85;;;14.35;;
18407;SDS011;9330;52.210;21.174;2024-03-07T04:29:24;24.67;;;15.52;;
18407;SDS011;9330;52.210;21.174;2024-03-07T04:31:51;22.83;;;14.43;;
18407;SDS011;9330;52.210;21.174;2024-03-07T04:34:18;22.05;;;14.98;;
18407;SDS011;9330;52.210;21.174;2024-03-07T04:36:46;24.80;;;15.15;;
18407;SDS011;9330;52.210;21.174;2024-03-07T04:39:13;26.05;;;16.08;;
18407;SDS011;9330;52.210;21.174;2024-03-07T04:41:49;22.63;;;14.40;;
18407;SDS011;9330;52.210;21.174;2024-03-07T04:44:17;22.40;;;14.77;;
18407;SDS011;9330;52.210;21.174;2024-03-07T04:46:47;22.25;;;15.38;;
18407;SDS011;9330;52.210;21.174;2024-03-07T04:49:14;24.92;;;15.27;;
18407;SDS011;9330;52.210;21.174;2024-03-07T04:51:41;21.30;;;14.30;;
18407;SDS011;9330;52.210;21.174;2024-03-07T04:54:10;22.95;;;14.70;;
18407;SDS011;9330;52.210;21.174;2024-03-07T04:56:36;24.98;;;15.65;;
18407;SDS011;9330;52.210;21.174;2024-03-07T04:59:03;23.73;;;15.32;;
18407;SDS011;9330;52.210;21.174;2024-03-07T05:01:30;22.65;;;14.68;;
18407;SDS011;9330;52.210;21.174;2024-03-07T05:03:57;23.25;;;15.60;;
18407;SDS011;9330;52.210;21.174;2024-03-07T05:06:24;22.67;;;14.70;;
18407;SDS011;9330;52.210;21.174;2024-03-07T05:08:51;21.75;;;14.40;;
18407;SDS011;9330;52.210;21.174;2024-03-07T05:11:19;22.35;;;14.98;;
18407;SDS011;9330;52.210;21.174;2024-03-07T05:13:46;22.73;;;15.05;;
18407;SDS011;9330;52.210;21.174;2024-03-07T05:16:13;23.60;;;15.88;;
18407;SDS011;9330;52.210;21.174;2024-03-07T05:18:42;21.17;;;14.00;;
18407;SDS011;9330;52.210;21.174;2024-03-07T05:21:09;23.42;;;14.52;;
18407;SDS011;9330;52.210;21.174;2024-03-07T05:23:50;20.48;;;13.77;;
18407;SDS011;9330;52.210;21.174;2024-03-07T05:26:17;22.17;;;14.30;;
18407;SDS011;9330;52.210;21.174;2024-03-07T05:28:45;20.52;;;13.55;;
18407;SDS011;9330;52.210;21.174;2024-03-07T05:31:12;21.40;;;14.45;;
18407;SDS011;9330;52.210;21.174;2024-03-07T05:33:43;21.73;;;14.10;;
18407;SDS011;9330;52.210;21.174;2024-03-07T05:36:10;21.40;;;14.50;;
18407;SDS011;9330;52.210;21.174;2024-03-07T05:38:40;22.40;;;14.18;;
18407;SDS011;9330;52.210;21.174;2024-03-07T05:41:08;20.27;;;13.75;;
18407;SDS011;9330;52.210;21.174;2024-03-07T05:43:36;22.13;;;14.27;;
18407;SDS011;9330;52.210;21.174;2024-03-07T05:46:04;23.02;;;14.63;;
18407;SDS011;9330;52.210;21.174;2024-03-07T05:48:32;20.08;;;13.75;;
18407;SDS011;9330;52.210;21.174;2024-03-07T05:50:59;20.23;;;13.27;;
18407;SDS011;9330;52.210;21.174;2024-03-07T05:53:26;20.73;;;13.43;;
18407;SDS011;9330;52.210;21.174;2024-03-07T05:55:54;22.92;;;14.63;;
18407;SDS011;9330;52.210;21.174;2024-03-07T05:58:21;22.65;;;14.18;;
18407;SDS011;9330;52.210;21.174;2024-03-07T06:00:48;22.10;;;14.20;;
18407;SDS011;9330;52.210;21.174;2024-03-07T06:03:17;21.33;;;13.75;;
18407;SDS011;9330;52.210;21.174;2024-03-07T06:05:45;23.67;;;15.43;;
18407;SDS011;9330;52.210;21.174;2024-03-07T06:08:13;21.38;;;14.05;;
18407;SDS011;9330;52.210;21.174;2024-03-07T06:10:42;21.45;;;13.85;;
18407;SDS011;9330;52.210;21.174;2024-03-07T06:13:09;21.58;;;13.48;;
18407;SDS011;9330;52.210;21.174;2024-03-07T06:15:37;23.08;;;14.23;;
18407;SDS011;9330;52.210;21.174;2024-03-07T06:18:04;20.83;;;13.93;;
18407;SDS011;9330;52.210;21.174;2024-03-07T06:20:34;19.05;;;13.07;;
18407;SDS011;9330;52.210;21.174;2024-03-07T06:23:01;24.55;;;14.52;;
18407;SDS011;9330;52.210;21.174;2024-03-07T06:25:30;21.20;;;13.48;;
18407;SDS011;9330;52.210;21.174;2024-03-07T06:28:02;17.38;;;12.57;;
18407;SDS011;9330;52.210;21.174;2024-03-07T06:30:36;20.08;;;13.05;;
18407;SDS011;9330;52.210;21.174;2024-03-07T06:33:03;19.40;;;12.98;;
18407;SDS011;9330;52.210;21.174;2024-03-07T06:35:30;21.00;;;13.68;;
18407;SDS011;9330;52.210;21.174;2024-03-07T06:37:59;20.60;;;14.30;;
18407;SDS011;9330;52.210;21.174;2024-03-07T06:40:25;17.27;;;12.50;;
18407;SDS011;9330;52.210;21.174;2024-03-07T06:42:52;17.92;;;12.50;;
18407;SDS011;9330;52.210;21.174;2024-03-07T06:45:19;17.30;;;12.38;;
18407;SDS011;9330;52.210;21.174;2024-03-07T06:47:46;17.70;;;12.35;;
18407;SDS011;9330;52.210;21.174;2024-03-07T06:50:13;17.50;;;12.20;;
18407;SDS011;9330;52.210;21.174;2024-03-07T06:52:44;19.83;;;12.50;;
18407;SDS011;9330;52.210;21.174;2024-03-07T06:55:13;16.90;;;11.90;;
18407;SDS011;9330;52.210;21.174;2024-03-07T06:57:41;18.08;;;12.32;;
18407;SDS011;9330;52.210;21.174;2024-03-07T07:00:09;15.80;;;11.10;;
18407;SDS011;9330;52.210;21.174;2024-03-07T07:02:37;16.60;;;11.40;;
18407;SDS011;9330;52.210;21.174;2024-03-07T07:05:05;13.98;;;10.88;;
18407;SDS011;9330;52.210;21.174;2024-03-07T07:07:36;17.40;;;11.80;;
18407;SDS011;9330;52.210;21.174;2024-03-07T07:10:04;20.10;;;12.07;;
18407;SDS011;9330;52.210;21.174;2024-03-07T07:12:38;14.15;;;10.50;;
18407;SDS011;9330;52.210;21.174;2024-03-07T07:15:05;16.98;;;11.35;;
18407;SDS011;9330;52.210;21.174;2024-03-07T07:17:32;15.25;;;10.88;;
18407;SDS011;9330;52.210;21.174;2024-03-07T07:19:59;14.38;;;10.50;;
18407;SDS011;9330;52.210;21.174;2024-03-07T07:22:26;14.30;;;10.60;;
18407;SDS011;9330;52.210;21.174;2024-03-07T07:24:53;16.73;;;11.05;;
18407;SDS011;9330;52.210;21.174;2024-03-07T07:27:20;17.23;;;10.80;;
18407;SDS011;9330;52.210;21.174;2024-03-07T07:29:48;14.80;;;9.77;;
18407;SDS011;9330;52.210;21.174;2024-03-07T07:32:15;13.43;;;9.60;;
18407;SDS011;9330;52.210;21.174;2024-03-07T07:34:42;16.10;;;10.82;;
18407;SDS011;9330;52.210;21.174;2024-03-07T07:37:09;13.32;;;9.07;;
18407;SDS011;9330;52.210;21.174;2024-03-07T07:39:36;12.50;;;8.93;;
18407;SDS011;9330;52.210;21.174;2024-03-07T07:42:03;12.82;;;9.57;;
18407;SDS011;9330;52.210;21.174;2024-03-07T07:44:30;14.73;;;9.65;;
18407;SDS011;9330;52.210;21.174;2024-03-07T07:46:59;13.27;;;9.57;;
18407;SDS011;9330;52.210;21.174;2024-03-07T07:49:26;12.13;;;8.65;;
18407;SDS011;9330;52.210;21.174;2024-03-07T07:51:54;14.45;;;10.05;;
18407;SDS011;9330;52.210;21.174;2024-03-07T07:54:20;13.18;;;9.70;;
18407;SDS011;9330;52.210;21.174;2024-03-07T07:56:48;12.23;;;9.45;;
18407;SDS011;9330;52.210;21.174;2024-03-07T07:59:16;14.52;;;10.05;;
18407;SDS011;9330;52.210;21.174;2024-03-07T08:01:43;15.52;;;9.90;;
18407;SDS011;9330;52.210;21.174;2024-03-07T08:04:11;12.60;;;9.50;;
18407;SDS011;9330;52.210;21.174;2024-03-07T08:06:38;14.52;;;9.88;;
18407;SDS011;9330;52.210;21.174;2024-03-07T08:09:06;12.57;;;8.82;;
18407;SDS011;9330;52.210;21.174;2024-03-07T08:11:35;13.18;;;9.30;;
18407;SDS011;9330;52.210;21.174;2024-03-07T08:14:03;12.77;;;8.73;;
18407;SDS011;9330;52.210;21.174;2024-03-07T08:16:31;13.00;;;8.35;;
18407;SDS011;9330;52.210;21.174;2024-03-07T08:18:58;10.80;;;8.40;;
18407;SDS011;9330;52.210;21.174;2024-03-07T08:21:27;11.18;;;8.23;;
18407;SDS011;9330;52.210;21.174;2024-03-07T08:23:53;12.48;;;9.30;;
18407;SDS011;9330;52.210;21.174;2024-03-07T08:26:21;11.68;;;7.65;;
18407;SDS011;9330;52.210;21.174;2024-03-07T08:28:48;11.02;;;7.70;;
18407;SDS011;9330;52.210;21.174;2024-03-07T08:31:14;8.32;;;6.82;;
18407;SDS011;9330;52.210;21.174;2024-03-07T08:33:42;8.43;;;6.82;;
18407;SDS011;9330;52.210;21.174;2024-03-07T08:36:11;10.57;;;7.45;;
18407;SDS011;9330;52.210;21.174;2024-03-07T08:38:39;8.82;;;6.68;;
18407;SDS011;9330;52.210;21.174;2024-03-07T08:41:08;10.82;;;6.88;;
18407;SDS011;9330;52.210;21.174;2024-03-07T08:43:36;8.38;;;6.00;;
18407;SDS011;9330;52.210;21.174;2024-03-07T08:46:03;7.90;;;6.05;;
18407;SDS011;9330;52.210;21.174;2024-03-07T08:48:30;8.88;;;6.40;;
18407;SDS011;9330;52.210;21.174;2024-03-07T08:50:57;8.27;;;6.72;;
18407;SDS011;9330;52.210;21.174;2024-03-07T08:53:23;8.95;;;6.00;;
18407;SDS011;9330;52.210;21.174;2024-03-07T08:55:52;9.77;;;6.25;;
18407;SDS011;9330;52.210;21.174;2024-03-07T08:58:18;7.82;;;5.65;;
18407;SDS011;9330;52.210;21.174;2024-03-07T09:00:46;7.57;;;5.80;;
18407;SDS011;9330;52.210;21.174;2024-03-07T09:03:13;7.70;;;5.22;;
18407;SDS011;9330;52.210;21.174;2024-03-07T09:05:43;6.95;;;5.55;;
18407;SDS011;9330;52.210;21.174;2024-03-07T09:08:09;7.25;;;5.80;;
18407;SDS011;9330;52.210;21.174;2024-03-07T09:10:36;6.80;;;5.18;;
18407;SDS011;9330;52.210;21.174;2024-03-07T09:13:07;6.30;;;5.10;;
18407;SDS011;9330;52.210;21.174;2024-03-07T09:15:35;6.78;;;5.15;;
18407;SDS011;9330;52.210;21.174;2024-03-07T09:18:04;6.07;;;5.22;;
18407;SDS011;9330;52.210;21.174;2024-03-07T09:20:31;8.55;;;5.57;;
18407;SDS011;9330;52.210;21.174;2024-03-07T09:22:58;7.85;;;5.43;;
18407;SDS011;9330;52.210;21.174;2024-03-07T09:25:25;7.82;;;5.50;;
18407;SDS011;9330;52.210;21.174;2024-03-07T09:27:52;8.70;;;6.13;;
18407;SDS011;9330;52.210;21.174;2024-03-07T09:30:22;7.07;;;4.97;;
18407;SDS011;9330;52.210;21.174;2024-03-07T09:32:52;7.47;;;5.05;;
18407;SDS011;9330;52.210;21.174;2024-03-07T09:35:20;8.35;;;5.82;;
18407;SDS011;9330;52.210;21.174;2024-03-07T09:37:47;7.55;;;5.50;;
18407;SDS011;9330;52.210;21.174;2024-03-07T09:40:14;8.43;;;5.70;;
18407;SDS011;9330;52.210;21.174;2024-03-07T09:42:42;8.57;;;5.55;;
18407;SDS011;9330;52.210;21.174;2024-03-07T09:45:13;6.20;;;4.80;;
18407;SDS011;9330;52.210;21.174;2024-03-07T09:47:44;7.30;;;5.53;;
18407;SDS011;9330;52.210;21.174;2024-03-07T09:50:14;6.75;;;5.22;;
18407;SDS011;9330;52.210;21.174;2024-03-07T09:52:44;6.78;;;5.22;;
18407;SDS011;9330;52.210;21.174;2024-03-07T09:55:14;8.10;;;5.22;;
18407;SDS011;9330;52.210;21.174;2024-03-07T09:57:42;6.82;;;5.30;;
18407;SDS011;9330;52.210;21.174;2024-03-07T10:00:10;9.18;;;5.40;;
18407;SDS011;9330;52.210;21.174;2024-03-07T10:02:49;10.00;;;5.47;;
18407;SDS011;9330;52.210;21.174;2024-03-07T10:05:19;7.10;;;5.15;;
18407;SDS011;9330;52.210;21.174;2024-03-07T10:07:48;7.22;;;5.10;;
18407;SDS011;9330;52.210;21.174;2024-03-07T10:10:16;7.70;;;5.32;;
18407;SDS011;9330;52.210;21.174;2024-03-07T10:12:42;6.55;;;4.75;;
18407;SDS011;9330;52.210;21.174;2024-03-07T10:15:10;6.43;;;4.85;;
18407;SDS011;9330;52.210;21.174;2024-03-07T10:17:38;7.43;;;5.15;;
18407;SDS011;9330;52.210;21.174;2024-03-07T10:20:07;8.50;;;4.85;;
18407;SDS011;9330;52.210;21.174;2024-03-07T10:22:38;7.18;;;5.00;;
18407;SDS011;9330;52.210;21.174;2024-03-07T10:25:06;7.15;;;5.40;;
18407;SDS011;9330;52.210;21.174;2024-03-07T10:27:35;6.70;;;5.13;;
18407;SDS011;9330;52.210;21.174;2024-03-07T10:30:03;8.15;;;5.80;;
18407;SDS011;9330;52.210;21.174;2024-03-07T10:32:32;8.45;;;5.30;;
18407;SDS011;9330;52.210;21.174;2024-03-07T10:34:59;6.43;;;4.10;;
18407;SDS011;9330;52.210;21.174;2024-03-07T10:37:29;6.97;;;5.20;;
18407;SDS011;9330;52.210;21.174;2024-03-07T10:39:56;6.93;;;5.03;;
18407;SDS011;9330;52.210;21.174;2024-03-07T10:42:23;7.70;;;4.90;;
18407;SDS011;9330;52.210;21.174;2024-03-07T10:44:59;7.70;;;5.30;;
18407;SDS011;9330;52.210;21.174;2024-03-07T10:47:30;6.82;;;5.13;;
18407;SDS011;9330;52.210;21.174;2024-03-07T10:50:04;7.20;;;4.80;;
18407;SDS011;9330;52.210;21.174;2024-03-07T10:52:43;5.97;;;4.68;;
18407;SDS011;9330;52.210;21.174;2024-03-07T10:55:18;6.53;;;4.90;;
18407;SDS011;9330;52.210;21.174;2024-03-07T10:58:02;6.97;;;5.50;;
18407;SDS011;9330;52.210;21.174;2024-03-07T11:00:34;9.10;;;5.30;;
18407;SDS011;9330;52.210;21.174;2024-03-07T11:03:04;6.72;;;5.05;;
18407;SDS011;9330;52.210;21.174;2024-03-07T11:05:33;6.80;;;5.38;;
18407;SDS011;9330;52.210;21.174;2024-03-07T11:08:02;8.05;;;5.25;;
18407;SDS011;9330;52.210;21.174;2024-03-07T11:10:36;6.47;;;4.97;;
18407;SDS011;9330;52.210;21.174;2024-03-07T11:13:04;6.50;;;5.18;;
18407;SDS011;9330;52.210;21.174;2024-03-07T11:15:34;6.45;;;4.97;;
18407;SDS011;9330;52.210;21.174;2024-03-07T11:18:02;9.40;;;6.20;;
18407;SDS011;9330;52.210;21.174;2024-03-07T11:20:33;5.95;;;5.18;;
18407;SDS011;9330;52.210;21.174;2024-03-07T11:23:02;7.47;;;5.60;;
18407;SDS011;9330;52.210;21.174;2024-03-07T11:25:53;8.10;;;5.43;;
18407;SDS011;9330;52.210;21.174;2024-03-07T11:28:27;7.43;;;5.15;;
18407;SDS011;9330;52.210;21.174;2024-03-07T11:31:06;7.38;;;5.47;;
18407;SDS011;9330;52.210;21.174;2024-03-07T11:33:34;6.85;;;4.90;;
18407;SDS011;9330;52.210;21.174;2024-03-07T11:36:05;6.40;;;5.03;;
18407;SDS011;9330;52.210;21.174;2024-03-07T11:38:34;7.65;;;5.63;;
18407;SDS011;9330;52.210;21.174;2024-03-07T11:41:03;7.63;;;5.40;;
18407;SDS011;9330;52.210;21.174;2024-03-07T11:43:30;5.97;;;4.60;;
18407;SDS011;9330;52.210;21.174;2024-03-07T11:45:58;7.68;;;5.57;;
18407;SDS011;9330;52.210;21.174;2024-03-07T11:48:25;6.00;;;5.05;;
18407;SDS011;9330;52.210;21.174;2024-03-07T11:50:52;8.43;;;5.95;;
18407;SDS011;9330;52.210;21.174;2024-03-07T11:53:20;6.97;;;5.25;;
18407;SDS011;9330;52.210;21.174;2024-03-07T11:55:48;8.32;;;6.22;;
18407;SDS011;9330;52.210;21.174;2024-03-07T11:58:16;5.63;;;4.88;;
18407;SDS011;9330;52.210;21.174;2024-03-07T12:00:46;6.22;;;5.30;;
18407;SDS011;9330;52.210;21.174;2024-03-07T12:03:14;7.93;;;5.05;;
18407;SDS011;9330;52.210;21.174;2024-03-07T12:05:43;5.95;;;4.95;;
18407;SDS011;9330;52.210;21.174;2024-03-07T12:08:11;7.97;;;5.32;;
18407;SDS011;9330;52.210;21.174;2024-03-07T12:10:38;9.00;;;5.43;;
18407;SDS011;9330;52.210;21.174;2024-03-07T12:13:10;6.80;;;5.00;;
18407;SDS011;9330;52.210;21.174;2024-03-07T12:15:38;7.55;;;5.78;;
18407;SDS011;9330;52.210;21.174;2024-03-07T12:18:06;7.82;;;6.05;;
18407;SDS011;9330;52.210;21.174;2024-03-07T12:20:39;8.05;;;5.40;;
18407;SDS011;9330;52.210;21.174;2024-03-07T12:23:12;7.22;;;5.07;;
18407;SDS011;9330;52.210;21.174;2024-03-07T12:25:39;7.38;;;5.82;;
18407;SDS011;9330;52.210;21.174;2024-03-07T12:28:08;8.70;;;5.53;;
18407;SDS011;9330;52.210;21.174;2024-03-07T12:30:47;6.25;;;5.20;;
18407;SDS011;9330;52.210;21.174;2024-03-07T12:33:18;5.95;;;5.00;;
18407;SDS011;9330;52.210;21.174;2024-03-07T12:35:48;5.72;;;4.85;;
18407;SDS011;9330;52.210;21.174;2024-03-07T12:38:17;5.82;;;4.93;;
18407;SDS011;9330;52.210;21.174;2024-03-07T12:40:44;6.38;;;5.28;;
18407;SDS011;9330;52.210;21.174;2024-03-07T12:43:14;6.18;;;5.10;;
18407;SDS011;9330;52.210;21.174;2024-03-07T12:45:43;8.13;;;5.35;;
18407;SDS011;9330;52.210;21.174;2024-03-07T12:48:19;5.90;;;4.65;;
18407;SDS011;9330;52.210;21.174;2024-03-07T12:50:47;6.50;;;5.82;;
18407;SDS011;9330;52.210;21.174;2024-03-07T12:53:18;6.55;;;5.53;;
18407;SDS011;9330;52.210;21.174;2024-03-07T12:55:45;6.90;;;5.22;;
18407;SDS011;9330;52.210;21.174;2024-03-07T12:58:13;6.55;;;5.53;;
18407;SDS011;9330;52.210;21.174;2024-03-07T13:00:40;7.65;;;5.68;;
18407;SDS011;9330;52.210;21.174;2024-03-07T13:03:07;9.55;;;5.93;;
18407;SDS011;9330;52.210;21.174;2024-03-07T13:05:34;6.65;;;5.57;;
18407;SDS011;9330;52.210;21.174;2024-03-07T13:08:05;8.32;;;5.28;;
18407;SDS011;9330;52.210;21.174;2024-03-07T13:10:34;7.55;;;5.97;;
18407;SDS011;9330;52.210;21.174;2024-03-07T13:13:02;6.35;;;5.05;;
18407;SDS011;9330;52.210;21.174;2024-03-07T13:15:31;6.85;;;5.50;;
18407;SDS011;9330;52.210;21.174;2024-03-07T13:17:58;8.52;;;5.20;;
18407;SDS011;9330;52.210;21.174;2024-03-07T13:20:24;7.43;;;5.55;;
18407;SDS011;9330;52.210;21.174;2024-03-07T13:22:52;7.28;;;5.57;;
18407;SDS011;9330;52.210;21.174;2024-03-07T13:25:21;7.78;;;5.90;;
18407;SDS011;9330;52.210;21.174;2024-03-07T13:27:55;8.48;;;6.65;;
18407;SDS011;9330;52.210;21.174;2024-03-07T13:30:24;8.55;;;6.25;;
18407;SDS011;9330;52.210;21.174;2024-03-07T13:32:55;11.95;;;6.40;;
18407;SDS011;9330;52.210;21.174;2024-03-07T13:35:22;8.32;;;5.72;;
18407;SDS011;9330;52.210;21.174;2024-03-07T13:37:50;7.43;;;6.00;;
18407;SDS011;9330;52.210;21.174;2024-03-07T13:40:19;7.72;;;5.93;;
18407;SDS011;9330;52.210;21.174;2024-03-07T13:42:49;6.93;;;5.50;;
18407;SDS011;9330;52.210;21.174;2024-03-07T13:45:18;7.88;;;5.60;;
18407;SDS011;9330;52.210;21.174;2024-03-07T13:47:47;7.93;;;5.57;;
18407;SDS011;9330;52.210;21.174;2024-03-07T13:50:16;11.32;;;5.97;;
18407;SDS011;9330;52.210;21.174;2024-03-07T13:52:44;7.78;;;4.85;;
18407;SDS011;9330;52.210;21.174;2024-03-07T13:55:30;7.43;;;5.53;;
18407;SDS011;9330;52.210;21.174;2024-03-07T13:58:00;8.73;;;5.93;;
18407;SDS011;9330;52.210;21.174;2024-03-07T14:00:36;6.35;;;4.57;;
18407;SDS011;9330;52.210;21.174;2024-03-07T14:06:21;7.38;;;5.70;;
18407;SDS011;9330;52.210;21.174;2024-03-07T14:08:56;6.45;;;5.10;;
18407;SDS011;9330;52.210;21.174;2024-03-07T14:12:14;8.23;;;4.80;;
18407;SDS011;9330;52.210;21.174;2024-03-07T14:27:31;8.77;;;6.18;;
18407;SDS011;9330;52.210;21.174;2024-03-07T14:33:05;7.00;;;5.43;;
18407;SDS011;9330;52.210;21.174;2024-03-07T14:35:35;7.07;;;4.97;;
18407;SDS011;9330;52.210;21.174;2024-03-07T14:38:26;6.75;;;4.93;;
18407;SDS011;9330;52.210;21.174;2024-03-07T14:40:54;9.23;;;6.07;;
18407;SDS011;9330;52.210;21.174;2024-03-07T14:43:22;6.50;;;5.20;;
18407;SDS011;9330;52.210;21.174;2024-03-07T14:45:50;7.15;;;5.55;;
18407;SDS011;9330;52.210;21.174;2024-03-07T14:48:20;8.98;;;5.90;;
18407;SDS011;9330;52.210;21.174;2024-03-07T14:50:47;7.90;;;5.78;;
18407;SDS011;9330;52.210;21.174;2024-03-07T14:53:14;10.93;;;7.43;;
18407;SDS011;9330;52.210;21.174;2024-03-07T14:55:44;8.65;;;6.50;;
18407;SDS011;9330;52.210;21.174;2024-03-07T14:58:12;9.20;;;6.72;;
18407;SDS011;9330;52.210;21.174;2024-03-07T15:00:41;8.45;;;5.70;;